createdAt,value
2023-12-21T00:02:23.899Z,4.40
2023-12-21T00:04:57.802Z,4.57
2023-12-21T00:07:32.031Z,5.57
2023-12-21T00:10:06.903Z,5.00
2023-12-21T00:12:42.232Z,4.17
2023-12-21T00:15:16.328Z,4.23
2023-12-21T00:17:50.629Z,8.57
2023-12-21T00:20:25.069Z,5.33
2023-12-21T00:22:58.633Z,5.43
2023-12-21T00:25:32.532Z,5.17
2023-12-21T00:28:09.596Z,5.27
2023-12-21T00:30:43.147Z,4.73
2023-12-21T00:33:16.883Z,5.17
2023-12-21T00:35:51.080Z,5.93
2023-12-21T00:38:25.050Z,4.70
2023-12-21T00:41:00.503Z,4.63
2023-12-21T00:43:36.271Z,4.57
2023-12-21T00:46:10.285Z,4.30
2023-12-21T00:48:44.215Z,4.03
2023-12-21T00:51:19.473Z,3.57
2023-12-21T00:53:53.160Z,4.40
2023-12-21T00:56:28.489Z,3.77
2023-12-21T00:59:05.749Z,4.27
2023-12-21T01:01:39.733Z,4.27
2023-12-21T01:04:14.356Z,3.53
2023-12-21T01:06:48.405Z,3.40
2023-12-21T01:09:22.309Z,4.00
2023-12-21T01:11:57.199Z,3.93
2023-12-21T01:14:32.677Z,5.77
2023-12-21T01:17:06.783Z,3.70
2023-12-21T01:19:42.119Z,3.20
2023-12-21T01:22:15.924Z,3.30
2023-12-21T01:24:49.742Z,3.80
2023-12-21T01:27:31.869Z,3.00
2023-12-21T01:30:11.000Z,3.40
2023-12-21T01:32:45.089Z,3.03
2023-12-21T01:35:18.801Z,2.87
2023-12-21T01:37:52.994Z,3.23
2023-12-21T01:40:26.574Z,2.77
2023-12-21T01:43:00.770Z,3.20
2023-12-21T01:45:36.059Z,3.20
2023-12-21T01:48:12.149Z,2.70
2023-12-21T01:50:46.767Z,2.83
2023-12-21T01:53:20.791Z,2.40
2023-12-21T01:55:54.663Z,2.30
2023-12-21T01:58:28.957Z,2.73
2023-12-21T02:01:07.782Z,2.37
2023-12-21T02:03:43.478Z,3.00
2023-12-21T02:06:17.792Z,3.70
2023-12-21T02:08:51.699Z,2.40
2023-12-21T02:11:25.696Z,2.80
2023-12-21T02:14:00.328Z,5.10
2023-12-21T02:16:42.377Z,2.70
2023-12-21T02:19:17.878Z,3.00
2023-12-21T02:21:53.322Z,2.87
2023-12-21T02:24:29.259Z,2.80
2023-12-21T02:27:03.965Z,4.07
2023-12-21T02:29:37.783Z,3.40
2023-12-21T02:32:12.516Z,3.30
2023-12-21T02:34:46.550Z,3.40
2023-12-21T02:37:21.195Z,4.30
2023-12-21T02:39:56.921Z,4.13
2023-12-21T02:42:30.701Z,3.67
2023-12-21T02:45:04.655Z,5.33
2023-12-21T02:47:38.169Z,4.13
2023-12-21T02:50:13.434Z,3.97
2023-12-21T02:53:12.854Z,3.33
2023-12-21T02:55:48.514Z,4.00
2023-12-21T02:58:22.301Z,3.33
2023-12-21T03:00:56.353Z,3.53
2023-12-21T03:03:29.984Z,3.00
2023-12-21T03:06:04.160Z,3.00
2023-12-21T03:08:38.163Z,3.10
2023-12-21T03:11:13.316Z,3.03
2023-12-21T03:13:47.126Z,2.47
2023-12-21T03:16:21.170Z,2.77
2023-12-21T03:18:55.117Z,2.97
2023-12-21T03:21:29.331Z,3.13
2023-12-21T03:24:03.355Z,2.40
2023-12-21T03:26:38.747Z,2.13
2023-12-21T03:29:12.103Z,2.07
2023-12-21T03:31:45.990Z,1.90
2023-12-21T03:34:20.448Z,2.70
2023-12-21T03:36:55.389Z,1.73
2023-12-21T03:39:29.233Z,2.83
2023-12-21T03:42:04.663Z,1.60
2023-12-21T03:44:39.199Z,1.60
2023-12-21T03:47:17.615Z,1.50
2023-12-21T03:49:52.705Z,1.97
2023-12-21T03:52:27.502Z,1.60
2023-12-21T03:55:01.768Z,1.97
2023-12-21T03:57:37.357Z,1.50
2023-12-21T04:00:14.776Z,1.90
2023-12-21T04:02:48.791Z,2.07
2023-12-21T04:05:22.981Z,2.23
2023-12-21T04:07:57.474Z,1.57
2023-12-21T04:10:31.188Z,1.73
2023-12-21T04:13:08.200Z,2.20
2023-12-21T04:15:41.846Z,2.07
2023-12-21T04:18:16.279Z,2.40
2023-12-21T04:20:50.201Z,2.33
2023-12-21T04:23:27.766Z,2.33
2023-12-21T04:26:01.333Z,2.17
2023-12-21T04:28:37.053Z,2.10
2023-12-21T04:31:11.522Z,1.57
2023-12-21T04:33:46.817Z,3.47
2023-12-21T04:36:24.406Z,1.57
2023-12-21T04:39:01.456Z,1.77
2023-12-21T04:41:36.535Z,2.80
2023-12-21T04:44:12.176Z,1.50
2023-12-21T04:46:49.549Z,1.70
2023-12-21T04:49:25.861Z,2.57
2023-12-21T04:51:59.873Z,1.37
2023-12-21T04:54:33.763Z,1.83
2023-12-21T04:57:08.048Z,1.10
2023-12-21T04:59:44.960Z,1.53
2023-12-21T05:02:19.384Z,1.40
2023-12-21T05:04:54.939Z,1.20
2023-12-21T05:07:28.809Z,0.90
2023-12-21T05:10:04.648Z,1.70
2023-12-21T05:12:38.097Z,1.23
2023-12-21T05:15:13.680Z,0.97
2023-12-21T05:17:53.917Z,1.27
2023-12-21T05:20:28.048Z,1.03
2023-12-21T05:23:02.619Z,1.17
2023-12-21T05:25:36.751Z,1.80
2023-12-21T05:28:15.284Z,0.60
2023-12-21T05:30:51.089Z,0.80
2023-12-21T05:33:24.555Z,0.83
2023-12-21T05:36:01.262Z,1.13
2023-12-21T05:38:35.627Z,0.67
2023-12-21T05:41:09.466Z,0.70
2023-12-21T05:43:44.284Z,1.10
2023-12-21T05:46:20.278Z,0.73
2023-12-21T05:48:53.956Z,1.07
2023-12-21T05:51:28.594Z,1.10
2023-12-21T05:54:02.789Z,1.23
2023-12-21T05:56:38.727Z,3.77
2023-12-21T05:59:13.725Z,1.97
2023-12-21T06:01:50.738Z,1.37
2023-12-21T06:04:24.446Z,1.63
2023-12-21T06:06:58.462Z,1.60
2023-12-21T06:09:32.567Z,1.93
2023-12-21T06:12:07.228Z,2.87
2023-12-21T06:14:41.450Z,3.67
2023-12-21T06:17:18.032Z,2.33
2023-12-21T06:19:52.462Z,2.07
2023-12-21T06:22:31.206Z,2.07
2023-12-21T06:25:07.351Z,1.67
2023-12-21T06:27:43.013Z,3.43
2023-12-21T06:30:19.407Z,3.07
2023-12-21T06:32:54.810Z,4.83
2023-12-21T06:35:28.758Z,1.57
2023-12-21T06:38:02.489Z,2.90
2023-12-21T06:40:38.134Z,2.73
2023-12-21T06:43:13.450Z,3.37
2023-12-21T06:45:48.753Z,2.90
2023-12-21T06:48:24.320Z,3.40
2023-12-21T06:50:58.437Z,4.07
2023-12-21T06:53:33.828Z,3.43
2023-12-21T06:56:23.929Z,3.57
2023-12-21T06:59:08.247Z,3.60
2023-12-21T07:01:42.384Z,3.40
2023-12-21T07:04:20.579Z,4.27
2023-12-21T07:06:54.389Z,6.20
2023-12-21T07:09:28.106Z,4.53
2023-12-21T07:12:02.486Z,3.40
2023-12-21T07:14:36.754Z,3.43
2023-12-21T07:17:10.831Z,3.70
2023-12-21T07:19:46.558Z,4.07
2023-12-21T07:22:20.293Z,4.30
2023-12-21T07:24:56.681Z,4.23
2023-12-21T07:27:31.030Z,3.47
2023-12-21T07:30:05.813Z,3.53
2023-12-21T07:32:41.253Z,5.17
2023-12-21T07:35:18.442Z,4.03
2023-12-21T07:37:54.445Z,4.00
2023-12-21T07:40:29.623Z,3.77
2023-12-21T07:43:03.968Z,3.07
2023-12-21T07:45:38.537Z,2.60
2023-12-21T07:48:13.105Z,4.00
2023-12-21T07:50:48.624Z,3.57
2023-12-21T07:53:22.267Z,2.27
2023-12-21T07:55:56.845Z,2.00
2023-12-21T07:58:30.880Z,2.77
2023-12-21T08:01:05.469Z,2.30
2023-12-21T08:03:39.451Z,2.83
2023-12-21T08:06:24.686Z,2.83
2023-12-21T08:09:00.046Z,3.33
2023-12-21T08:11:34.262Z,2.07
2023-12-21T08:14:09.096Z,3.10
2023-12-21T08:16:47.083Z,4.23
2023-12-21T08:19:22.633Z,2.87
2023-12-21T08:21:57.895Z,2.90
2023-12-21T08:24:31.358Z,3.20
2023-12-21T08:27:07.646Z,4.07
2023-12-21T08:29:41.650Z,2.93
2023-12-21T08:32:16.335Z,3.40
2023-12-21T08:34:50.110Z,3.47
2023-12-21T08:37:26.172Z,2.10
2023-12-21T08:40:01.113Z,2.53
2023-12-21T08:42:35.130Z,3.97
2023-12-21T08:45:13.615Z,1.90
2023-12-21T08:47:48.001Z,2.30
2023-12-21T08:50:21.786Z,2.83
2023-12-21T08:53:02.364Z,3.97
2023-12-21T08:55:36.282Z,2.37
2023-12-21T08:58:10.316Z,1.87
2023-12-21T09:00:48.202Z,1.93
2023-12-21T09:03:22.037Z,1.70
2023-12-21T09:05:56.027Z,1.83
2023-12-21T09:08:31.214Z,2.70
2023-12-21T09:11:06.087Z,1.87
2023-12-21T09:13:40.920Z,1.80
2023-12-21T09:16:18.843Z,1.43
2023-12-21T09:18:56.315Z,2.83
2023-12-21T09:21:30.222Z,1.73
2023-12-21T09:24:06.692Z,1.27
2023-12-21T09:26:40.445Z,2.00
2023-12-21T09:29:14.936Z,1.57
2023-12-21T09:31:50.155Z,1.80
2023-12-21T09:34:23.817Z,1.47
2023-12-21T09:42:22.071Z,1.00
2023-12-21T09:44:56.791Z,1.43
2023-12-21T09:47:32.305Z,2.50
2023-12-21T09:50:09.847Z,1.07
2023-12-21T09:52:44.749Z,1.07
2023-12-21T09:55:25.221Z,0.90
2023-12-21T09:58:07.332Z,1.33
2023-12-21T10:00:42.157Z,1.00
2023-12-21T10:03:17.270Z,1.23
2023-12-21T10:05:50.716Z,1.57
2023-12-21T10:08:24.466Z,1.10
2023-12-21T10:10:58.244Z,0.77
2023-12-21T10:13:35.627Z,1.10
2023-12-21T10:16:09.991Z,0.83
2023-12-21T10:18:44.318Z,1.40
2023-12-21T10:21:22.444Z,0.97
2023-12-21T10:23:58.427Z,0.80
2023-12-21T10:26:33.597Z,0.80
2023-12-21T10:29:09.598Z,0.70
2023-12-21T10:31:47.231Z,0.60
2023-12-21T10:34:23.083Z,1.27
2023-12-21T10:37:02.478Z,0.50
2023-12-21T10:39:36.589Z,0.77
2023-12-21T10:42:10.665Z,0.70
2023-12-21T10:44:50.434Z,0.70
2023-12-21T10:47:25.666Z,0.63
2023-12-21T10:50:03.937Z,0.87
2023-12-21T10:52:38.671Z,0.77
2023-12-21T10:55:17.395Z,0.60
2023-12-21T10:57:58.569Z,0.60
2023-12-21T11:00:44.500Z,0.50
2023-12-21T11:03:19.026Z,0.60
2023-12-21T11:05:54.301Z,0.50
2023-12-21T11:08:30.497Z,0.67
2023-12-21T11:11:06.765Z,1.23
2023-12-21T11:13:42.303Z,1.27
2023-12-21T11:16:19.508Z,0.80
2023-12-21T11:18:58.119Z,1.47
2023-12-21T11:21:35.243Z,0.70
2023-12-21T11:24:09.285Z,1.03
2023-12-21T11:26:44.793Z,2.83
2023-12-21T11:29:29.251Z,1.40
2023-12-21T11:32:07.656Z,2.83
2023-12-21T11:34:42.074Z,1.60
2023-12-21T11:37:20.282Z,2.07
2023-12-21T11:39:59.597Z,4.23
2023-12-21T11:42:37.616Z,1.80
2023-12-21T11:45:13.471Z,2.60
2023-12-21T11:47:49.310Z,1.57
2023-12-21T11:50:27.740Z,3.13
2023-12-21T11:53:14.048Z,2.27
2023-12-21T11:55:49.728Z,3.10
2023-12-21T11:58:25.593Z,2.80
2023-12-21T12:01:00.399Z,2.43
2023-12-21T12:03:36.120Z,3.63
2023-12-21T12:06:11.026Z,2.37
2023-12-21T12:08:45.059Z,1.67
2023-12-21T12:11:19.916Z,3.57
2023-12-21T12:13:53.427Z,2.13
2023-12-21T12:16:28.978Z,1.83
2023-12-21T12:19:04.314Z,2.07
2023-12-21T12:21:38.211Z,2.23
2023-12-21T12:24:12.392Z,4.23
2023-12-21T12:26:47.824Z,2.17
2023-12-21T12:29:21.937Z,2.77
2023-12-21T12:31:57.281Z,0.90
2023-12-21T12:34:32.806Z,4.33
2023-12-21T12:37:08.269Z,12.63
2023-12-21T12:39:41.995Z,6.90
2023-12-21T12:42:16.111Z,4.73
2023-12-21T12:44:52.925Z,6.33
2023-12-21T12:47:27.016Z,3.07
2023-12-21T12:50:04.187Z,3.23
2023-12-21T12:52:42.315Z,3.63
2023-12-21T12:55:20.385Z,3.40
2023-12-21T12:57:56.975Z,3.87
2023-12-21T13:00:31.719Z,2.30
2023-12-21T13:03:07.156Z,3.47
2023-12-21T13:05:42.721Z,2.53
2023-12-21T13:08:16.481Z,2.83
2023-12-21T13:10:50.990Z,3.13
2023-12-21T13:13:28.561Z,3.40
2023-12-21T13:16:03.955Z,1.97
2023-12-21T13:18:38.576Z,1.90
2023-12-21T13:21:14.827Z,2.30
2023-12-21T13:23:48.446Z,2.07
2023-12-21T13:26:22.686Z,2.07
2023-12-21T13:28:56.398Z,2.97
2023-12-21T13:31:31.508Z,1.93
2023-12-21T13:34:07.666Z,1.40
2023-12-21T13:36:44.564Z,1.50
2023-12-21T13:39:22.118Z,1.53
2023-12-21T13:41:58.152Z,1.20
2023-12-21T13:44:32.829Z,1.93
2023-12-21T13:47:08.301Z,2.50
2023-12-21T13:49:41.762Z,1.80
2023-12-21T13:52:20.003Z,2.57
2023-12-21T13:54:54.520Z,2.23
2023-12-21T13:57:30.657Z,4.60
2023-12-21T14:00:05.793Z,2.43
2023-12-21T14:02:39.575Z,3.43
2023-12-21T14:05:13.710Z,2.70
2023-12-21T14:07:49.753Z,1.93
2023-12-21T14:10:24.293Z,3.33
2023-12-21T14:13:01.147Z,2.33
2023-12-21T14:15:36.688Z,1.63
2023-12-21T14:18:10.805Z,3.17
2023-12-21T14:20:49.253Z,1.73
2023-12-21T14:23:25.311Z,1.30
2023-12-21T14:25:58.862Z,1.67
2023-12-21T14:28:39.516Z,1.17
2023-12-21T14:31:20.261Z,2.80
2023-12-21T14:33:54.447Z,2.97
2023-12-21T14:36:28.296Z,3.17
2023-12-21T14:39:06.334Z,3.23
2023-12-21T14:41:39.869Z,3.03
2023-12-21T14:44:13.957Z,2.93
2023-12-21T14:46:49.519Z,2.97
2023-12-21T14:49:23.246Z,2.83
2023-12-21T14:51:57.354Z,3.77
2023-12-21T14:54:33.504Z,3.07
2023-12-21T14:57:08.532Z,5.70
2023-12-21T14:59:42.576Z,5.20
2023-12-21T15:02:18.108Z,3.63
2023-12-21T15:04:54.085Z,3.10
2023-12-21T15:07:27.687Z,3.40
2023-12-21T15:10:02.901Z,4.23
2023-12-21T15:12:37.806Z,5.10
2023-12-21T15:15:13.034Z,5.43
2023-12-21T15:17:47.587Z,4.67
2023-12-21T15:20:25.683Z,3.90
2023-12-21T15:23:00.388Z,4.77
2023-12-21T15:25:36.467Z,3.23
2023-12-21T15:28:10.627Z,4.77
2023-12-21T15:30:44.311Z,4.23
2023-12-21T15:33:18.294Z,3.53
2023-12-21T15:35:54.913Z,3.23
2023-12-21T15:38:29.222Z,2.83
2023-12-21T15:41:04.787Z,3.97
2023-12-21T15:43:38.660Z,4.97
2023-12-21T15:46:12.733Z,4.23
2023-12-21T15:48:47.151Z,6.37
2023-12-21T15:51:22.645Z,6.63
2023-12-21T15:53:56.454Z,5.47
2023-12-21T15:56:31.696Z,7.00
2023-12-21T15:59:05.704Z,7.93
2023-12-21T16:01:39.585Z,6.27
2023-12-21T16:04:13.677Z,7.27
2023-12-21T16:06:47.043Z,6.63
2023-12-21T16:09:20.610Z,6.13
2023-12-21T16:11:55.837Z,6.03
2023-12-21T16:14:29.702Z,6.37
2023-12-21T16:17:04.624Z,4.30
2023-12-21T16:19:38.455Z,7.60
2023-12-21T16:22:12.207Z,6.37
2023-12-21T16:24:46.456Z,6.70
2023-12-21T16:27:24.390Z,5.53
2023-12-21T16:29:57.995Z,4.10
2023-12-21T16:32:31.969Z,3.87
2023-12-21T16:35:06.378Z,6.33
2023-12-21T16:37:40.438Z,6.33
2023-12-21T16:40:16.108Z,4.30
2023-12-21T16:42:51.773Z,3.77
2023-12-21T16:45:25.320Z,5.60
2023-12-21T16:47:59.537Z,3.50
2023-12-21T16:50:33.281Z,2.83
2023-12-21T16:53:06.831Z,3.80
2023-12-21T16:55:40.697Z,4.20
2023-12-21T16:58:16.841Z,3.23
2023-12-21T17:00:55.277Z,4.97
2023-12-21T17:03:29.172Z,4.50
2023-12-21T17:06:02.997Z,7.73
2023-12-21T17:08:36.849Z,5.60
2023-12-21T17:11:10.562Z,6.87
2023-12-21T17:13:47.123Z,6.60
2023-12-21T17:16:24.416Z,3.77
2023-12-21T17:18:58.133Z,4.37
2023-12-21T17:21:33.830Z,3.97
2023-12-21T17:24:09.501Z,3.43
2023-12-21T17:26:43.634Z,3.47
2023-12-21T17:29:18.914Z,3.73
2023-12-21T17:31:52.891Z,4.97
2023-12-21T17:34:27.394Z,6.23
2023-12-21T17:37:00.982Z,3.97
2023-12-21T17:39:34.622Z,4.33
2023-12-21T17:42:08.651Z,4.90
2023-12-21T17:44:44.287Z,5.87
2023-12-21T17:47:19.301Z,6.50
2023-12-21T17:49:57.025Z,5.33
2023-12-21T17:52:31.041Z,4.80
2023-12-21T17:55:05.478Z,5.17
2023-12-21T17:57:39.335Z,5.40
2023-12-21T18:00:18.642Z,8.27
2023-12-21T18:02:54.888Z,5.90
2023-12-21T18:05:29.253Z,3.20
2023-12-21T18:08:06.231Z,5.23
2023-12-21T18:10:40.824Z,4.10
2023-12-21T18:13:15.040Z,3.37
2023-12-21T18:15:53.373Z,4.03
2023-12-21T18:18:27.623Z,4.30
2023-12-21T18:21:02.235Z,6.77
2023-12-21T18:23:37.385Z,6.73
2023-12-21T18:26:12.089Z,5.63
2023-12-21T18:28:46.403Z,3.70
2023-12-21T18:31:22.571Z,4.43
2023-12-21T18:33:56.685Z,3.53
2023-12-21T18:36:31.784Z,5.03
2023-12-21T18:39:10.833Z,3.43
2023-12-21T18:41:44.999Z,3.13
2023-12-21T18:44:18.841Z,5.07
2023-12-21T18:46:54.531Z,3.13
2023-12-21T18:49:28.534Z,3.00
2023-12-21T18:52:02.076Z,6.00
2023-12-21T18:54:35.821Z,4.80
2023-12-21T18:57:09.648Z,4.87
2023-12-21T18:59:44.089Z,3.37
2023-12-21T19:02:19.704Z,6.37
2023-12-21T19:04:53.120Z,4.80
2023-12-21T19:07:30.974Z,3.73
2023-12-21T19:10:08.445Z,6.20
2023-12-21T19:12:43.567Z,6.33
2023-12-21T19:15:17.763Z,6.07
2023-12-21T19:17:55.247Z,7.47
2023-12-21T19:20:29.502Z,5.80
2023-12-21T19:23:06.609Z,4.87
2023-12-21T19:25:40.463Z,5.93
2023-12-21T19:28:15.083Z,5.53
2023-12-21T19:30:48.819Z,7.27
2023-12-21T19:33:24.471Z,7.30
2023-12-21T19:35:59.640Z,7.60
2023-12-21T19:38:34.179Z,6.27
2023-12-21T19:41:10.314Z,6.07
2023-12-21T19:43:44.154Z,5.60
2023-12-21T19:46:20.210Z,3.93
2023-12-21T19:48:55.525Z,7.13
2023-12-21T19:51:29.533Z,3.60
2023-12-21T19:54:05.428Z,6.50
2023-12-21T19:56:44.242Z,5.33
2023-12-21T19:59:20.463Z,5.37
2023-12-21T20:01:55.985Z,5.43
2023-12-21T20:04:31.393Z,6.37
2023-12-21T20:07:06.856Z,4.47
2023-12-21T20:09:40.558Z,6.73
2023-12-21T20:12:15.549Z,5.97
2023-12-21T20:14:51.776Z,6.03
2023-12-21T20:17:25.556Z,8.93
2023-12-21T20:20:01.189Z,5.93
2023-12-21T20:22:35.126Z,5.20
2023-12-21T20:25:10.047Z,6.83
2023-12-21T20:27:48.325Z,7.03
2023-12-21T20:30:24.062Z,5.97
2023-12-21T20:32:58.749Z,5.90
2023-12-21T20:35:34.265Z,6.57
2023-12-21T20:38:10.790Z,5.67
2023-12-21T20:40:44.394Z,5.10
2023-12-21T20:43:19.956Z,7.83
2023-12-21T20:45:53.739Z,6.80
2023-12-21T20:48:28.335Z,11.57
2023-12-21T20:51:04.038Z,6.10
2023-12-21T20:53:37.825Z,7.47
2023-12-21T20:56:12.953Z,8.43
2023-12-21T20:58:47.126Z,8.40
2023-12-21T21:01:22.376Z,8.67
2023-12-21T21:03:56.560Z,8.43
2023-12-21T21:06:32.359Z,9.07
2023-12-21T21:09:10.271Z,7.83
2023-12-21T21:11:44.195Z,9.90
2023-12-21T21:14:18.016Z,7.07
2023-12-21T21:16:55.805Z,10.43
2023-12-21T21:19:29.822Z,7.47
2023-12-21T21:22:08.998Z,8.40
2023-12-21T21:24:50.435Z,7.23
2023-12-21T21:27:24.056Z,9.97
2023-12-21T21:29:57.625Z,8.97
2023-12-21T21:32:32.439Z,8.97
2023-12-21T21:35:07.575Z,6.33
2023-12-21T21:37:43.164Z,8.83
2023-12-21T21:40:17.312Z,10.27
2023-12-21T21:42:55.470Z,6.43
2023-12-21T21:45:29.330Z,6.90
2023-12-21T21:48:03.230Z,8.33
2023-12-21T21:50:37.048Z,5.77
2023-12-21T21:53:11.974Z,6.93
2023-12-21T21:55:50.029Z,6.70
2023-12-21T21:58:23.683Z,8.23
2023-12-21T22:00:57.490Z,6.73
2023-12-21T22:03:31.301Z,5.97
2023-12-21T22:06:30.150Z,5.83
2023-12-21T22:09:05.717Z,5.80
2023-12-21T22:11:39.642Z,5.83
2023-12-21T22:14:13.406Z,9.93
2023-12-21T22:16:49.639Z,5.90
2023-12-21T22:19:24.474Z,5.20
2023-12-21T22:21:59.329Z,5.50
2023-12-21T22:24:34.818Z,6.23
2023-12-21T22:27:09.495Z,3.73
2023-12-21T22:29:44.596Z,4.63
2023-12-21T22:32:18.372Z,6.50
2023-12-21T22:34:52.499Z,5.90
2023-12-21T22:37:26.207Z,6.13
2023-12-21T22:40:01.280Z,4.80
2023-12-21T22:42:35.499Z,7.93
2023-12-21T22:45:10.732Z,4.43
2023-12-21T22:47:44.741Z,5.27
2023-12-21T22:50:19.864Z,5.50
2023-12-21T22:52:53.947Z,6.00
2023-12-21T22:55:29.134Z,5.73
2023-12-21T22:58:04.312Z,4.97
2023-12-21T23:00:38.146Z,6.37
2023-12-21T23:03:11.703Z,5.23
2023-12-21T23:05:45.628Z,5.93
2023-12-21T23:08:20.081Z,6.43
2023-12-21T23:10:55.736Z,5.77
2023-12-21T23:13:29.766Z,4.93
2023-12-21T23:16:06.144Z,7.00
2023-12-21T23:18:39.954Z,6.50
2023-12-21T23:21:13.741Z,5.43
2023-12-21T23:23:47.531Z,3.73
2023-12-21T23:26:22.839Z,3.80
2023-12-21T23:28:56.613Z,4.53
2023-12-21T23:31:31.242Z,3.20
2023-12-21T23:34:05.090Z,3.97
2023-12-21T23:36:43.257Z,5.37
2023-12-21T23:39:17.637Z,2.80
2023-12-21T23:41:54.097Z,4.73
2023-12-21T23:44:27.587Z,3.43
2023-12-21T23:47:01.383Z,5.70
2023-12-21T23:49:35.440Z,3.37
2023-12-21T23:52:09.428Z,7.43
2023-12-21T23:54:43.401Z,4.23
2023-12-21T23:57:18.584Z,2.97
2023-12-21T23:59:52.921Z,3.23
